Time;durP1;ratioP1;P1;durP2;ratioP2;P2;SDS_P1;SDS_P2;PMS_P1;PMS_P2;Temp;Humidity;BMP_temperature;BMP_pressure;BME280_temperature;BME280_humidity;BME280_pressure;Samples;Min_cycle;Max_cycle;Signal;HPM_P1;HPM_P2
2021/07/10 00:00:22;;;;;;;;;;;;;;;15.44;100.00;99992.56;4995538;28;19948;-77
2021/07/10 00:02:49;;;;;;;;;;;;;;;15.47;100.00;99991.69;4995548;28;19926;-78
2021/07/10 00:05:17;;;;;;;;;;;;;;;15.53;100.00;99992.78;5012956;28;19925;-78
2021/07/10 00:07:44;;;;;;;;;;;;;;;15.53;100.00;99989.16;5013038;28;19992;-78
2021/07/10 00:10:13;;;;;;;;;;;;;;;15.52;100.00;99999.66;5012870;28;20401;-78
2021/07/10 00:12:40;;;;;;;;;;;;;;;15.51;100.00;99992.41;5012662;28;19926;-78
2021/07/10 00:15:12;;;;;;;;;;;;;;;15.51;100.00;99998.03;5012572;28;19951;-77
2021/07/10 00:17:39;;;;;;;;;;;;;;;15.46;100.00;99998.56;4997217;28;20015;-78
2021/07/10 00:20:07;;;;;;;;;;;;;;;15.38;100.00;99988.69;5016109;28;19925;-78
2021/07/10 00:22:34;;;;;;;;;;;;;;;15.38;100.00;99988.69;5016378;28;19925;-78
2021/07/10 00:25:06;;;;;;;;;;;;;;;15.44;100.00;99986.13;5016372;28;19926;-77
2021/07/10 00:27:33;;;;;;;;;;;;;;;15.41;100.00;99987.00;4985734;28;20404;-77
2021/07/10 00:30:01;;;;;;;;;;;;;;;15.48;100.00;99981.25;4998415;28;19941;-77
2021/07/10 00:32:28;;;;;;;;;;;;;;;15.43;100.00;99979.72;4998564;28;19936;-78
2021/07/10 00:34:55;;;;;;;;;;;;;;;15.43;100.00;99985.38;4982357;28;19925;-77
2021/07/10 00:37:22;;;;;;;;;;;;;;;15.41;100.00;99975.75;5015906;28;19925;-78
2021/07/10 00:39:49;;;;;;;;;;;;;;;15.37;100.00;99975.81;5015970;28;19969;-78
2021/07/10 00:42:19;;;;;;;;;;;;;;;15.44;100.00;99978.50;5015895;28;19925;-77
2021/07/10 00:44:47;;;;;;;;;;;;;;;15.45;100.00;99977.25;4998370;28;20389;-77
2021/07/10 00:47:14;;;;;;;;;;;;;;;15.30;100.00;99970.31;5015799;28;20320;-78
2021/07/10 00:49:42;;;;;;;;;;;;;;;15.32;100.00;99967.06;4998399;28;19930;-78
2021/07/10 00:52:09;;;;;;;;;;;;;;;15.15;100.00;99956.94;5015771;28;19926;-78
2021/07/10 00:54:36;;;;;;;;;;;;;;;15.02;100.00;99939.94;4998085;28;19925;-77
2021/07/10 00:57:04;;;;;;;;;;;;;;;14.99;100.00;99943.59;4981999;28;19937;-77
2021/07/10 00:59:31;;;;;;;;;;;;;;;14.85;100.00;99941.06;5015205;28;19926;-77
2021/07/10 01:01:59;;;;;;;;;;;;;;;14.74;100.00;99948.13;4998130;28;19925;-77
2021/07/10 01:04:26;;;;;;;;;;;;;;;14.61;100.00;99945.13;4981841;28;20385;-77
2021/07/10 01:06:53;;;;;;;;;;;;;;;14.65;100.00;99950.69;5015319;28;19932;-78
2021/07/10 01:09:20;;;;;;;;;;;;;;;14.68;100.00;99942.19;4998035;28;19926;-78
2021/07/10 01:11:47;;;;;;;;;;;;;;;14.76;100.00;99954.91;5015201;28;20504;-78
2021/07/10 01:14:15;;;;;;;;;;;;;;;14.77;100.00;99953.66;5014894;28;19929;-77
2021/07/10 01:16:43;;;;;;;;;;;;;;;14.74;100.00;99946.09;5015063;28;19929;-78
2021/07/10 01:19:11;;;;;;;;;;;;;;;14.71;100.00;99944.13;5015171;28;19926;-77
2021/07/10 01:21:39;;;;;;;;;;;;;;;14.61;100.00;99947.16;4997715;28;19925;-78
2021/07/10 01:24:06;;;;;;;;;;;;;;;14.31;100.00;99939.66;5015173;28;19929;-78
2021/07/10 01:26:33;;;;;;;;;;;;;;;14.26;100.00;99935.31;5015153;28;19929;-78
2021/07/10 01:29:00;;;;;;;;;;;;;;;14.35;100.00;99940.38;5014433;28;19968;-78
2021/07/10 01:31:28;;;;;;;;;;;;;;;14.38;100.00;99937.50;5014779;28;19929;-78
2021/07/10 01:33:55;;;;;;;;;;;;;;;14.39;100.00;99938.28;5014871;28;19932;-77
2021/07/10 01:36:22;;;;;;;;;;;;;;;14.20;100.00;99927.75;5014960;28;20025;-77
2021/07/10 01:38:49;;;;;;;;;;;;;;;14.15;100.00;99928.25;5014632;28;19941;-78
2021/07/10 01:41:17;;;;;;;;;;;;;;;14.17;100.00;99926.59;5014833;28;19925;-77
2021/07/10 01:43:44;;;;;;;;;;;;;;;14.10;100.00;99909.06;4997206;28;19925;-77
2021/07/10 01:46:11;;;;;;;;;;;;;;;14.02;100.00;99904.78;4997098;28;19932;-77
2021/07/10 01:48:38;;;;;;;;;;;;;;;13.72;100.00;99888.00;4997320;28;19995;-77
2021/07/10 01:51:05;;;;;;;;;;;;;;;13.71;100.00;99886.41;5014497;28;20372;-78
2021/07/10 01:53:32;;;;;;;;;;;;;;;13.71;100.00;99886.41;4996900;28;19926;-77
2021/07/10 01:55:59;;;;;;;;;;;;;;;13.69;100.00;99891.69;5014272;28;19926;-77
2021/07/10 01:58:26;;;;;;;;;;;;;;;13.67;100.00;99891.28;5014453;28;19972;-78
2021/07/10 02:00:53;;;;;;;;;;;;;;;13.85;100.00;99892.63;5014235;28;19932;-77
2021/07/10 02:03:20;;;;;;;;;;;;;;;13.80;100.00;99884.66;5014535;28;19953;-78
2021/07/10 02:05:48;;;;;;;;;;;;;;;13.80;100.00;99892.28;5014309;28;20024;-77
2021/07/10 02:08:15;;;;;;;;;;;;;;;13.87;100.00;99889.38;4996623;28;20019;-77
2021/07/10 02:10:43;;;;;;;;;;;;;;;13.71;100.00;99880.78;4964476;28;20026;-77
2021/07/10 02:13:11;;;;;;;;;;;;;;;13.58;100.00;99862.94;4993233;28;19926;-77
2021/07/10 02:15:40;;;;;;;;;;;;;;;13.57;100.00;99872.59;4977379;28;19925;-77
2021/07/10 02:18:07;;;;;;;;;;;;;;;13.52;100.00;99873.88;4994468;28;19926;-77
2021/07/10 02:20:35;;;;;;;;;;;;;;;13.42;100.00;99869.19;4993268;28;19926;-77
2021/07/10 02:23:02;;;;;;;;;;;;;;;13.37;100.00;99871.69;4994498;28;19926;-77
2021/07/10 02:25:29;;;;;;;;;;;;;;;13.22;100.00;99875.91;4994233;28;19926;-77
2021/07/10 02:27:57;;;;;;;;;;;;;;;13.25;100.00;99870.28;4993212;28;19933;-78
2021/07/10 02:30:26;;;;;;;;;;;;;;;13.33;100.00;99879.38;4992948;28;19932;-77
2021/07/10 02:32:55;;;;;;;;;;;;;;;13.48;100.00;99884.34;4993126;28;20024;-78
2021/07/10 02:35:26;;;;;;;;;;;;;;;13.52;100.00;99878.69;4993286;28;20381;-78
2021/07/10 02:37:53;;;;;;;;;;;;;;;13.60;100.00;99880.19;4994421;28;19930;-77
2021/07/10 02:40:20;;;;;;;;;;;;;;;13.68;100.00;99878.84;4992290;28;19932;-78
2021/07/10 02:42:48;;;;;;;;;;;;;;;13.70;100.00;99884.81;4994151;28;19926;-77
2021/07/10 02:45:16;;;;;;;;;;;;;;;13.61;100.00;99876.16;4993027;28;20373;-77
2021/07/10 02:47:43;;;;;;;;;;;;;;;13.56;100.00;99873.81;4976928;28;19933;-78
2021/07/10 02:50:12;;;;;;;;;;;;;;;13.60;100.00;99875.34;4992913;28;20385;-77
2021/07/10 02:52:39;;;;;;;;;;;;;;;13.62;100.00;99878.53;4994040;28;20024;-78
2021/07/10 02:55:06;;;;;;;;;;;;;;;13.63;100.00;99873.72;4993879;28;19932;-77
2021/07/10 02:57:34;;;;;;;;;;;;;;;13.63;100.00;99880.09;4993955;28;19949;-77
2021/07/10 03:00:08;;;;;;;;;;;;;;;13.61;100.00;99882.56;4993805;28;19926;-77
2021/07/10 03:02:35;;;;;;;;;;;;;;;13.58;100.00;99877.00;4993924;28;19965;-77
2021/07/10 03:05:03;;;;;;;;;;;;;;;13.49;100.00;99874.72;4994072;28;19925;-78
2021/07/10 03:07:30;;;;;;;;;;;;;;;13.47;100.00;99870.72;4992609;28;19926;-78
2021/07/10 03:09:57;;;;;;;;;;;;;;;13.46;100.00;99869.16;4993607;28;19980;-78
2021/07/10 03:12:24;;;;;;;;;;;;;;;13.45;100.00;99878.81;4992374;28;19932;-78
2021/07/10 03:14:52;;;;;;;;;;;;;;;13.52;100.00;99873.06;4992603;28;19932;-78
2021/07/10 03:17:20;;;;;;;;;;;;;;;13.47;100.00;99876.34;4992701;28;20076;-77
2021/07/10 03:19:47;;;;;;;;;;;;;;;13.30;100.00;99874.63;4992697;28;19933;-77
2021/07/10 03:22:14;;;;;;;;;;;;;;;13.32;100.00;99874.97;4993639;28;19926;-78
2021/07/10 03:24:41;;;;;;;;;;;;;;;13.29;100.00;99870.19;4992218;28;19925;-78
2021/07/10 03:27:10;;;;;;;;;;;;;;;13.39;100.00;99874.88;4991998;28;19936;-78
2021/07/10 03:29:37;;;;;;;;;;;;;;;13.48;100.00;99873.13;4992263;28;19926;-78
2021/07/10 03:32:04;;;;;;;;;;;;;;;13.55;100.00;99873.03;4992536;28;19926;-78
2021/07/10 03:34:31;;;;;;;;;;;;;;;13.69;100.00;99880.44;4992459;28;19929;-78
2021/07/10 03:36:58;;;;;;;;;;;;;;;13.71;100.00;99880.78;4960426;28;19937;-78
2021/07/10 03:39:25;;;;;;;;;;;;;;;13.78;100.00;99880.69;4993268;28;19936;-78
2021/07/10 03:41:53;;;;;;;;;;;;;;;13.81;100.00;99885.47;4992368;28;19926;-77
2021/07/10 03:44:20;;;;;;;;;;;;;;;13.82;100.00;99881.44;4993720;28;20032;-78
2021/07/10 03:46:47;;;;;;;;;;;;;;;13.78;100.00;99875.84;4993644;28;19925;-77
2021/07/10 03:49:15;;;;;;;;;;;;;;;13.76;100.00;99869.09;4992498;28;19926;-78
2021/07/10 03:51:42;;;;;;;;;;;;;;;13.93;100.00;99865.97;4994335;28;19975;-78
2021/07/10 03:54:09;;;;;;;;;;;;;;;13.88;100.00;99869.28;4997147;28;19980;-78
2021/07/10 03:56:36;;;;;;;;;;;;;;;13.68;100.00;99859.97;4995829;28;19934;-78
2021/07/10 03:59:04;;;;;;;;;;;;;;;13.73;100.00;99864.31;4997120;28;19926;-78
2021/07/10 04:01:32;;;;;;;;;;;;;;;13.62;100.00;99866.50;4997196;28;19933;-78
2021/07/10 04:04:00;;;;;;;;;;;;;;;13.67;100.00;99863.22;4996932;28;19937;-77
2021/07/10 04:06:27;;;;;;;;;;;;;;;13.71;100.00;99866.75;4995856;28;19929;-78
2021/07/10 04:08:55;;;;;;;;;;;;;;;13.82;100.00;99867.38;4985966;28;19926;-78
2021/07/10 04:11:22;;;;;;;;;;;;;;;13.91;100.00;99878.88;4996944;28;20276;-78
2021/07/10 04:13:49;;;;;;;;;;;;;;;14.03;100.00;99881.06;5012779;28;19940;-78
2021/07/10 04:16:17;;;;;;;;;;;;;;;14.14;100.00;99887.31;5016468;28;19980;-77
2021/07/10 04:18:44;;;;;;;;;;;;;;;14.21;100.00;99884.38;5016111;28;20420;-78
2021/07/10 04:21:11;;;;;;;;;;;;;;;14.27;100.00;99888.31;5015776;28;19948;-77
2021/07/10 04:23:38;;;;;;;;;;;;;;;14.28;100.00;99893.50;4998915;28;20095;-77
2021/07/10 04:26:06;;;;;;;;;;;;;;;14.22;100.00;99892.38;5016044;28;19926;-78
2021/07/10 04:28:33;;;;;;;;;;;;;;;14.22;100.00;99895.19;4990443;28;19925;-77
2021/07/10 04:31:00;;;;;;;;;;;;;;;14.09;100.00;99885.78;5015337;28;20016;-77
2021/07/10 04:33:27;;;;;;;;;;;;;;;14.12;100.00;99890.53;5016079;28;19926;-78
2021/07/10 04:35:55;;;;;;;;;;;;;;;14.01;100.00;99878.69;5015749;28;20032;-77
2021/07/10 04:38:22;;;;;;;;;;;;;;;14.05;100.00;99878.63;4998699;28;19932;-77
2021/07/10 04:40:49;;;;;;;;;;;;;;;14.09;100.00;99882.16;5015889;28;20024;-78
2021/07/10 04:43:16;;;;;;;;;;;;;;;14.18;100.00;99885.22;4998590;28;20325;-78
2021/07/10 04:45:43;;;;;;;;;;;;;;;14.26;100.00;99892.34;4998350;28;19925;-78
2021/07/10 04:48:11;;;;;;;;;;;;;;;14.20;100.00;99889.22;5015077;28;19932;-78
2021/07/10 04:50:38;;;;;;;;;;;;;;;14.24;100.00;99891.97;4997540;28;19992;-78
2021/07/10 04:53:05;;;;;;;;;;;;;;;14.32;100.00;99893.44;4997511;28;19932;-78
2021/07/10 04:55:32;;;;;;;;;;;;;;;14.40;100.00;99894.91;5015607;28;20020;-78
2021/07/10 04:57:59;;;;;;;;;;;;;;;14.49;100.00;99895.16;5014747;28;20031;-78
2021/07/10 05:00:28;;;;;;;;;;;;;;;14.64;100.00;99895.66;4997567;28;19925;-78
2021/07/10 05:02:55;;;;;;;;;;;;;;;14.68;100.00;99893.59;4996591;28;20320;-77
2021/07/10 05:05:22;;;;;;;;;;;;;;;14.75;100.00;99894.25;4998292;28;20342;-78
2021/07/10 05:07:49;;;;;;;;;;;;;;;14.72;100.00;99900.72;4997750;28;19936;-77
2021/07/10 05:10:16;;;;;;;;;;;;;;;14.79;100.00;99894.97;5015182;28;19926;-77
2021/07/10 05:12:44;;;;;;;;;;;;;;;14.79;100.00;99889.34;4981759;28;20353;-78
2021/07/10 05:15:11;;;;;;;;;;;;;;;14.88;100.00;99886.75;5015327;28;19926;-77
2021/07/10 05:17:38;;;;;;;;;;;;;;;14.81;100.00;99886.88;5015474;28;19931;-77
2021/07/10 05:20:06;;;;;;;;;;;;;;;14.71;100.00;99885.06;5015111;28;19947;-78
2021/07/10 05:22:33;;;;;;;;;;;;;;;14.64;100.00;99878.78;5015373;28;19989;-78
2021/07/10 05:25:00;;;;;;;;;;;;;;;14.70;100.00;99875.03;5015302;28;20159;-78
2021/07/10 05:27:28;;;;;;;;;;;;;;;14.84;100.00;99873.97;5015321;28;20022;-78
2021/07/10 05:29:55;;;;;;;;;;;;;;;14.89;100.00;99882.69;5015181;28;19925;-77
2021/07/10 05:32:22;;;;;;;;;;;;;;;15.01;100.00;99878.44;5015003;28;19933;-78
2021/07/10 05:34:49;;;;;;;;;;;;;;;15.04;100.00;99881.16;5014939;28;19933;-78
2021/07/10 05:37:17;;;;;;;;;;;;;;;15.05;100.00;99885.59;4981503;28;19929;-78
2021/07/10 05:39:44;;;;;;;;;;;;;;;15.23;100.00;99891.63;5015005;28;20371;-78
2021/07/10 05:42:11;;;;;;;;;;;;;;;15.27;100.00;99883.88;4997624;28;19992;-78
2021/07/10 05:44:38;;;;;;;;;;;;;;;15.37;100.00;99890.53;4997237;28;20369;-78
2021/07/10 05:47:05;;;;;;;;;;;;;;;15.46;100.00;99894.38;5015069;28;20453;-78
2021/07/10 05:49:33;;;;;;;;;;;;;;;15.49;100.00;99893.50;4996941;28;19925;-78
2021/07/10 05:52:00;;;;;;;;;;;;;;;15.59;100.00;99902.91;5014827;28;20012;-78
2021/07/10 05:54:27;;;;;;;;;;;;;;;15.67;100.00;99899.50;5014607;28;19925;-77
2021/07/10 05:56:54;;;;;;;;;;;;;;;15.73;100.00;99906.22;4997385;28;19932;-77
2021/07/10 05:59:24;;;;;;;;;;;;;;;15.70;100.00;99904.28;4981545;28;19932;-78
2021/07/10 06:01:51;;;;;;;;;;;;;;;15.59;100.00;99902.91;4996384;28;20292;-77
2021/07/10 06:04:19;;;;;;;;;;;;;;;15.64;100.00;99900.38;5014251;28;19944;-77
2021/07/10 06:06:46;;;;;;;;;;;;;;;15.75;100.00;99892.47;5014192;28;19926;-77
2021/07/10 06:09:14;;;;;;;;;;;;;;;15.79;100.00;99898.81;4996691;28;19926;-77
2021/07/10 06:11:41;;;;;;;;;;;;;;;15.81;100.00;99890.69;4996564;28;19926;-77
2021/07/10 06:14:08;;;;;;;;;;;;;;;15.82;100.00;99900.75;5013661;28;19933;-77
2021/07/10 06:16:36;;;;;;;;;;;;;;;15.83;100.00;99896.69;5013793;28;19979;-77
2021/07/10 06:19:03;;;;;;;;;;;;;;;15.78;100.00;99900.03;5013999;28;19930;-77
2021/07/10 06:21:31;;;;;;;;;;;;;;;15.80;100.00;99893.97;5013806;28;19926;-77
2021/07/10 06:23:58;;;;;;;;;;;;;;;15.83;100.00;99893.88;4996603;28;19925;-77
2021/07/10 06:26:26;;;;;;;;;;;;;;;15.92;100.00;99896.88;4996363;28;19925;-77
2021/07/10 06:28:53;;;;;;;;;;;;;;;16.05;100.00;99894.94;5013967;28;20012;-77
2021/07/10 06:31:20;;;;;;;;;;;;;;;16.15;100.00;99901.56;5013742;28;19948;-77
2021/07/10 06:33:48;;;;;;;;;;;;;;;16.15;100.00;99890.28;4996178;28;19948;-77
2021/07/10 06:36:16;;;;;;;;;;;;;;;16.22;100.00;99888.06;5013612;28;19932;-77
2021/07/10 06:38:44;;;;;;;;;;;;;;;16.33;100.00;99895.47;4996467;28;19925;-77
2021/07/10 06:41:11;;;;;;;;;;;;;;;16.45;100.00;99897.59;5010758;28;20020;-83
2021/07/10 06:43:39;;;;;;;;;;;;;;;16.51;100.00;99901.47;4980905;28;19953;-78
2021/07/10 06:46:07;;;;;;;;;;;;;;;16.58;100.00;99899.25;4989312;28;19930;-77
2021/07/10 06:48:35;;;;;;;;;;;;;;;16.59;100.00;99903.66;4992219;28;20369;-79
2021/07/10 06:51:04;;;;;;;;;;;;;;;16.59;100.00;99895.19;5009756;28;20384;-79
2021/07/10 06:53:31;;;;;;;;;;;;;;;16.75;100.00;99902.81;5010159;28;19968;-78
2021/07/10 06:55:58;;;;;;;;;;;;;;;16.71;100.00;99899.28;4983118;28;19933;-78
2021/07/10 06:58:25;;;;;;;;;;;;;;;16.74;100.00;99895.56;5005558;28;19979;-78
2021/07/10 07:00:53;;;;;;;;;;;;;;;16.71;100.00;99891.63;5010200;28;19926;-78
2021/07/10 07:03:20;;;;;;;;;;;;;;;16.51;100.00;99884.53;5009576;28;19929;-78
2021/07/10 07:05:47;;;;;;;;;;;;;;;16.23;100.00;99874.75;5009820;28;19929;-77
2021/07/10 07:08:14;;;;;;;;;;;;;;;16.27;100.00;99881.91;5010041;28;19930;-78
2021/07/10 07:10:41;;;;;;;;;;;;;;;16.41;100.00;99889.19;5009646;28;19925;-78
2021/07/10 07:13:09;;;;;;;;;;;;;;;16.52;100.00;99889.75;5009657;28;19936;-77
2021/07/10 07:15:37;;;;;;;;;;;;;;;16.64;100.00;99894.66;5009957;28;20440;-77
2021/07/10 07:18:04;;;;;;;;;;;;;;;16.63;100.00;99895.09;4993783;28;19933;-78
2021/07/10 07:20:31;;;;;;;;;;;;;;;16.57;100.00;99894.06;5012449;28;19933;-78
2021/07/10 07:22:58;;;;;;;;;;;;;;;16.74;100.00;99898.41;5013320;28;19926;-81
2021/07/10 07:25:25;;;;;;;;;;;;;;;16.69;100.00;99890.50;4995861;28;20081;-77
2021/07/10 07:27:53;;;;;;;;;;;;;;;16.80;100.00;99897.41;5017536;28;19933;-78
2021/07/10 07:30:20;;;;;;;;;;;;;;;16.71;100.00;99888.78;4999520;28;20023;-80
2021/07/10 07:32:48;;;;;;;;;;;;;;;16.69;100.00;99893.31;5017212;28;20003;-80
2021/07/10 07:35:15;;;;;;;;;;;;;;;16.97;100.00;99895.31;5017106;28;19932;-79
2021/07/10 07:37:43;;;;;;;;;;;;;;;16.94;100.00;99891.38;5017022;28;19933;-79
2021/07/10 07:40:11;;;;;;;;;;;;;;;16.89;100.00;99894.75;4999957;28;20450;-79
2021/07/10 07:42:39;;;;;;;;;;;;;;;17.17;100.00;99901.59;5016938;28;19957;-79
2021/07/10 07:45:07;;;;;;;;;;;;;;;17.53;100.00;99905.78;4983453;28;19926;-77
2021/07/10 07:47:35;;;;;;;;;;;;;;;17.89;100.00;99911.09;5015450;28;19925;-77
2021/07/10 07:50:03;;;;;;;;;;;;;;;17.66;100.00;99891.66;4999341;28;19925;-78
2021/07/10 07:52:30;;;;;;;;;;;;;;;17.75;100.00;99886.13;4999277;28;19930;-79
2021/07/10 07:54:57;;;;;;;;;;;;;;;18.05;100.00;99879.88;5016676;28;19925;-79
2021/07/10 07:57:24;;;;;;;;;;;;;;;18.34;100.00;99877.69;4999173;28;20373;-79
2021/07/10 07:59:54;;;;;;;;;;;;;;;18.61;100.00;99863.81;4998839;28;19935;-79
2021/07/10 08:02:23;;;;;;;;;;;;;;;18.93;100.00;99852.06;5015900;28;20381;-80
2021/07/10 08:04:51;;;;;;;;;;;;;;;20.18;100.00;99846.72;4998451;28;19953;-78
2021/07/10 08:07:18;;;;;;;;;;;;;;;20.78;100.00;99816.50;5016296;28;19932;-79
2021/07/10 08:09:45;;;;;;;;;;;;;;;20.79;100.00;99710.13;5016463;28;19929;-79
2021/07/10 08:12:12;;;;;;;;;;;;;;;20.90;100.00;99619.53;4992152;28;20636;-79
2021/07/10 08:14:39;;;;;;;;;;;;;;;20.70;100.00;99517.09;4982312;28;20024;-80
2021/07/10 08:17:07;;;;;;;;;;;;;;;20.98;100.00;99450.34;5015736;28;19932;-79
2021/07/10 08:19:34;;;;;;;;;;;;;;;20.84;100.00;99402.78;5016178;28;19926;-79
2021/07/10 08:22:01;;;;;;;;;;;;;;;20.50;100.00;99353.03;4998691;28;20006;-79
2021/07/10 08:24:28;;;;;;;;;;;;;;;20.23;100.00;99332.53;5016335;28;19975;-80
2021/07/10 08:26:55;;;;;;;;;;;;;;;20.57;100.00;99317.81;4998484;28;20048;-79
2021/07/10 08:29:22;;;;;;;;;;;;;;;20.54;100.00;99301.75;4998207;28;19925;-79
2021/07/10 08:31:49;;;;;;;;;;;;;;;20.39;100.00;99272.53;4989705;28;19926;-79
2021/07/10 08:34:17;;;;;;;;;;;;;;;21.00;100.00;99258.28;4998722;28;19960;-79
2021/07/10 08:36:44;;;;;;;;;;;;;;;21.13;100.00;99223.88;5015400;28;19926;-79
2021/07/10 08:39:11;;;;;;;;;;;;;;;21.32;100.00;99205.34;4997134;28;19957;-79
2021/07/10 08:41:38;;;;;;;;;;;;;;;21.29;100.00;99169.38;5014874;28;20003;-79
2021/07/10 08:44:05;;;;;;;;;;;;;;;21.29;100.00;99158.81;4970945;28;20020;-79
2021/07/10 08:46:32;;;;;;;;;;;;;;;20.49;100.00;99130.03;5014471;28;20041;-79
2021/07/10 08:49:00;;;;;;;;;;;;;;;20.24;100.00;99124.97;4988145;28;19926;-79
2021/07/10 08:51:27;;;;;;;;;;;;;;;20.98;100.00;99126.53;4985161;28;19975;-79
2021/07/10 08:53:54;;;;;;;;;;;;;;;21.69;100.00;99135.31;5014856;28;19941;-79
2021/07/10 08:56:21;;;;;;;;;;;;;;;21.49;100.00;99126.78;4986064;28;20332;-79
2021/07/10 08:58:48;;;;;;;;;;;;;;;21.11;100.00;99096.50;4991018;28;20297;-79
2021/07/10 09:01:16;;;;;;;;;;;;;;;20.82;100.00;99090.09;4982068;28;20497;-79
2021/07/10 09:03:44;;;;;;;;;;;;;;;20.62;100.00;99087.19;4997173;28;19972;-79
2021/07/10 09:06:11;;;;;;;;;;;;;;;21.30;100.00;99091.38;4996980;28;20019;-79
2021/07/10 09:08:40;;;;;;;;;;;;;;;21.68;100.00;99082.56;5012458;28;19933;-79
2021/07/10 09:11:13;;;;;;;;;;;;;;;21.29;100.00;99058.56;5014277;28;19933;-79
2021/07/10 09:13:45;;;;;;;;;;;;;;;21.66;100.00;99045.31;5014295;28;19933;-79
2021/07/10 09:16:14;;;;;;;;;;;;;;;20.87;100.00;99035.47;5014182;28;19940;-78
2021/07/10 09:18:42;;;;;;;;;;;;;;;21.80;100.00;99043.69;5014211;28;19932;-79
2021/07/10 09:21:10;;;;;;;;;;;;;;;20.55;100.00;99039.34;5014370;28;20012;-79
2021/07/10 09:23:40;;;;;;;;;;;;;;;21.29;100.00;99044.34;5014085;28;19963;-79
2021/07/10 09:26:11;;;;;;;;;;;;;;;21.62;100.00;99033.38;4996455;28;19925;-78
2021/07/10 09:28:38;;;;;;;;;;;;;;;21.63;100.00;99029.25;5014073;28;19940;-79
2021/07/10 09:31:13;;;;;;;;;;;;;;;21.79;100.00;99020.19;5014042;28;19925;-78
2021/07/10 09:33:43;;;;;;;;;;;;;;;21.08;100.00;99008.69;4985026;28;20293;-79
2021/07/10 09:36:10;;;;;;;;;;;;;;;20.32;100.00;99009.81;5014071;28;19926;-79
2021/07/10 09:38:42;;;;;;;;;;;;;;;19.87;100.00;99009.50;5014068;28;19989;-78
2021/07/10 09:41:11;;;;;;;;;;;;;;;19.52;100.00;99012.94;5013599;28;19932;-78
2021/07/10 09:43:39;;;;;;;;;;;;;;;19.14;100.00;99018.59;5013816;28;19925;-78
2021/07/10 09:46:08;;;;;;;;;;;;;;;19.47;100.00;99022.13;5013777;28;20067;-78
2021/07/10 09:48:36;;;;;;;;;;;;;;;19.51;100.00;99030.44;5013573;28;19932;-78
2021/07/10 09:51:17;;;;;;;;;;;;;;;19.38;100.00;99030.72;4996214;28;19929;-78
2021/07/10 09:54:05;;;;;;;;;;;;;;;19.15;100.00;99034.28;5013617;28;20382;-78
2021/07/10 09:56:38;;;;;;;;;;;;;;;19.25;100.00;99038.63;4995208;28;20266;-78
2021/07/10 09:59:18;;;;;;;;;;;;;;;19.21;100.00;99040.06;5013450;28;19929;-78
2021/07/10 10:01:46;;;;;;;;;;;;;;;19.13;100.00;99042.47;4995822;28;19952;-78
2021/07/10 10:04:22;;;;;;;;;;;;;;;19.22;100.00;99050.91;5013212;28;19925;-78
2021/07/10 10:06:50;;;;;;;;;;;;;;;19.36;100.00;99055.88;5013244;28;19925;-78
2021/07/10 10:09:22;;;;;;;;;;;;;;;19.49;100.00;99067.75;5013179;28;19925;-78
2021/07/10 10:12:11;;;;;;;;;;;;;;;19.38;100.00;99070.38;4979683;28;19968;-78
2021/07/10 10:14:46;;;;;;;;;;;;;;;19.46;100.00;99077.22;5013225;28;20012;-78
2021/07/10 10:17:14;;;;;;;;;;;;;;;19.45;100.00;99077.69;4978448;28;19926;-78
2021/07/10 10:19:42;;;;;;;;;;;;;;;19.51;100.00;99079.41;5009712;28;19949;-78
2021/07/10 10:22:11;;;;;;;;;;;;;;;19.58;100.00;99079.00;4995118;28;20020;-78
2021/07/10 10:24:40;;;;;;;;;;;;;;;19.54;100.00;99071.97;5013105;28;19932;-78
2021/07/10 10:27:08;;;;;;;;;;;;;;;19.73;100.00;99074.16;4994827;28;20028;-78
2021/07/10 10:29:35;;;;;;;;;;;;;;;19.99;100.00;99073.66;5013190;28;19926;-78
2021/07/10 10:32:06;;;;;;;;;;;;;;;20.20;100.00;99067.63;5012628;28;19941;-78
2021/07/10 10:34:34;;;;;;;;;;;;;;;20.38;100.00;99055.31;5012620;28;19956;-78
2021/07/10 10:37:02;;;;;;;;;;;;;;;20.63;100.00;99044.09;5012454;28;20297;-78
2021/07/10 10:39:30;;;;;;;;;;;;;;;20.95;100.00;99030.94;4994894;28;20305;-78
2021/07/10 10:41:59;;;;;;;;;;;;;;;21.12;100.00;99017.75;4995371;28;19926;-78
2021/07/10 10:44:32;;;;;;;;;;;;;;;21.25;100.00;99015.34;4995100;28;19980;-78
2021/07/10 10:46:59;;;;;;;;;;;;;;;20.95;100.00;98994.81;5012739;28;19933;-78
2021/07/10 10:49:35;;;;;;;;;;;;;;;20.86;100.00;98992.06;4994988;28;19925;-78
2021/07/10 10:52:15;;;;;;;;;;;;;;;20.49;100.00;98981.69;4995495;28;19977;-78
2021/07/10 10:55:09;;;;;;;;;;;;;;;20.08;100.00;98980.75;5012436;28;20073;-78
2021/07/10 10:57:36;;;;;;;;;;;;;;;19.83;100.00;98981.31;4992961;28;19926;-78
2021/07/10 11:00:05;;;;;;;;;;;;;;;19.76;100.00;98980.94;5012238;28;19941;-78
2021/07/10 11:02:32;;;;;;;;;;;;;;;19.59;100.00;98987.06;5012432;28;19952;-78
2021/07/10 11:05:00;;;;;;;;;;;;;;;19.64;100.00;98992.06;4994926;28;19971;-78
2021/07/10 11:07:28;;;;;;;;;;;;;;;19.74;100.00;98989.91;5012406;28;19961;-78
2021/07/10 11:10:06;;;;;;;;;;;;;;;19.78;100.00;98990.50;5012427;28;20027;-79
2021/07/10 11:12:48;;;;;;;;;;;;;;;19.91;100.00;98993.06;5012783;28;20008;-79
2021/07/10 11:15:24;;;;;;;;;;;;;;;20.16;100.00;98998.94;5012590;28;20385;-79
2021/07/10 11:17:57;;;;;;;;;;;;;;;20.60;100.00;98994.00;5012515;28;19932;-79
2021/07/10 11:20:44;;;;;;;;;;;;;;;20.84;100.00;98997.44;5012393;28;19957;-79
2021/07/10 11:23:37;;;;;;;;;;;;;;;21.05;100.00;98984.09;4978774;28;19931;-78
2021/07/10 11:26:15;;;;;;;;;;;;;;;20.94;100.00;98972.56;4992428;28;19932;-79
2021/07/10 11:28:45;;;;;;;;;;;;;;;20.74;100.00;98959.13;5012366;28;20008;-78
2021/07/10 11:31:17;;;;;;;;;;;;;;;20.71;100.00;98953.63;5012551;28;19929;-78
2021/07/10 11:33:53;;;;;;;;;;;;;;;20.75;100.00;98954.22;5012393;28;19926;-78
2021/07/10 11:36:36;;;;;;;;;;;;;;;20.84;100.00;98949.19;4994740;28;19926;-78
2021/07/10 11:39:22;;;;;;;;;;;;;;;21.08;100.00;98943.34;4994941;28;19925;-79
2021/07/10 11:41:57;;;;;;;;;;;;;;;20.96;100.00;98931.03;5012362;28;19925;-79
2021/07/10 11:44:25;;;;;;;;;;;;;;;20.98;100.00;98934.16;5012240;28;19926;-78
2021/07/10 11:46:55;;;;;;;;;;;;;;;20.96;100.00;98927.44;5012422;28;19929;-79
2021/07/10 11:49:40;;;;;;;;;;;;;;;20.88;100.00;98918.53;5012390;28;19925;-78
2021/07/10 11:52:08;;;;;;;;;;;;;;;20.78;100.00;98919.16;4994754;28;20304;-79
2021/07/10 11:54:36;;;;;;;;;;;;;;;20.65;100.00;98924.38;5012176;28;19932;-78
2021/07/10 11:57:04;;;;;;;;;;;;;;;20.55;100.00;98922.97;4994761;28;19926;-78
2021/07/10 11:59:35;;;;;;;;;;;;;;;20.65;100.00;98915.88;5012078;28;19926;-78
2021/07/10 12:02:16;;;;;;;;;;;;;;;20.76;100.00;98924.56;5012341;28;20396;-78
2021/07/10 12:05:01;;;;;;;;;;;;;;;20.81;100.00;98923.84;4978476;28;19937;-78
2021/07/10 12:07:29;;;;;;;;;;;;;;;20.94;100.00;98921.44;4994806;28;19925;-79
2021/07/10 12:09:56;;;;;;;;;;;;;;;20.68;100.00;98915.69;4994453;28;19926;-78
2021/07/10 12:12:24;;;;;;;;;;;;;;;20.65;100.00;98910.19;5013519;28;20357;-78
2021/07/10 12:14:51;;;;;;;;;;;;;;;20.59;100.00;98906.50;4998083;28;20300;-78
2021/07/10 12:17:18;;;;;;;;;;;;;;;20.50;100.00;98912.31;4998250;28;19931;-78
2021/07/10 12:19:45;;;;;;;;;;;;;;;20.68;100.00;98907.16;5015474;28;19929;-78
2021/07/10 12:22:14;;;;;;;;;;;;;;;20.59;100.00;98898.78;5015535;28;20012;-78
2021/07/10 12:24:41;;;;;;;;;;;;;;;20.58;100.00;98894.38;5015912;28;19925;-78
2021/07/10 12:27:09;;;;;;;;;;;;;;;20.69;100.00;98896.59;5015487;28;19926;-78
2021/07/10 12:29:36;;;;;;;;;;;;;;;20.76;100.00;98888.44;5015759;28;20395;-79
2021/07/10 12:32:13;;;;;;;;;;;;;;;20.62;100.00;98882.81;5015219;28;19948;-78
2021/07/10 12:34:51;;;;;;;;;;;;;;;20.20;100.00;98893.81;5015210;28;19925;-78
2021/07/10 12:37:36;;;;;;;;;;;;;;;19.93;100.00;98894.13;5015134;28;20363;-78
2021/07/10 12:40:10;;;;;;;;;;;;;;;19.87;100.00;98898.91;5015439;28;19929;-78
2021/07/10 12:42:38;;;;;;;;;;;;;;;20.10;100.00;98904.44;5015158;28;20385;-78